This is the latest recevied weather packets stored in our database for station/object KK7ISX. If no packets are shown the sender has not sent any weather packets the latest 10 day(s).
| Time | Temp. | Humidity | Pressure | Rain* | Wind** | Luminosity | Snow |
|---|---|---|---|---|---|---|---|
| 1777959834 | 18.89° C | 42% | 1004.5 hPa | 0 mm | - | 0 W/m² | - |
| 1777959533 | 18.89° C | 43% | 1004.4 hPa | 0 mm | - | 0 W/m² | - |
| 1777959229 | 18.89° C | 42% | 1004.2 hPa | 0 mm | - | 0 W/m² | - |
| 1777958926 | 19.44° C | 42% | 1004.2 hPa | 0 mm | - | 0 W/m² | - |
| 1777958623 | 20° C | 40% | 1004.2 hPa | 0 mm | - | 0 W/m² | - |
| 1777958320 | 19.44° C | 40% | 1003.9 hPa | 0 mm | - | 0 W/m² | - |
| 1777958017 | 18.89° C | 42% | 1004.3 hPa | 0 mm | - | 0 W/m² | - |
| 1777957715 | 18.89° C | 46% | 1004.2 hPa | 0 mm | - | 0 W/m² | - |
| 1777957414 | 18.89° C | 47% | 1004.3 hPa | 0 mm | - | 0 W/m² | - |
| 1777957110 | 18.89° C | 45% | 1004.3 hPa | 0 mm | - | 0 W/m² | - |
| 1777956807 | 19.44° C | 44% | 1004.3 hPa | 0 mm | - | 0 W/m² | - |
| 1777956504 | 19.44° C | 44% | 1004.1 hPa | 0 mm | - | 0 W/m² | - |
| 1777956201 | 20° C | 43% | 1004.2 hPa | 0 mm | - | 0 W/m² | - |
| 1777955897 | 20° C | 43% | 1004.4 hPa | 0 mm | - | 0 W/m² | - |
| 1777955593 | 20° C | 43% | 1004.2 hPa | 0 mm | - | 0 W/m² | - |
| 1777955290 | 20° C | 45% | 1004.2 hPa | 0 mm | - | 0 W/m² | - |
| 1777954987 | 20° C | 44% | 1004.3 hPa | 0 mm | - | 0 W/m² | - |
| 1777954683 | 20.56° C | 43% | 1004.2 hPa | 0 mm | - | 0 W/m² | - |
| 1777954381 | 21.11° C | 41% | 1004.2 hPa | 0 mm | - | 0 W/m² | - |
| 1777954078 | 21.11° C | 40% | 1004.1 hPa | 0 mm | - | 0 W/m² | - |
| 1777943761 | 27.22° C | 28% | 1003.4 hPa | 0 mm | - | 113 W/m² | - |
| 1777943458 | 26.67° C | 28% | 1003.4 hPa | 0 mm | - | 97 W/m² | - |
| 1777943153 | 26.67° C | 29% | 1003.3 hPa | 0 mm | - | 105 W/m² | - |
| 1777942850 | 27.22° C | 29% | 1003.4 hPa | 0 mm | - | 145 W/m² | - |
| 1777942546 | 27.22° C | 28% | 1003.5 hPa | 0 mm | - | 152 W/m² | - |
* Rain latest hour (hover to see other rain measurements)
** Current wind speed in m/s (hover to see current wind gust speed)